sensor_id;sensor_type;location;lat;lon;timestamp;P1;durP1;ratioP1;P2;durP2;ratioP2
9102;SDS011;4587;51.434;6.788;2022-10-26T00:02:21;9.03;;;2.27;;
9102;SDS011;4587;51.434;6.788;2022-10-26T00:04:47;6.90;;;2.20;;
9102;SDS011;4587;51.434;6.788;2022-10-26T00:07:12;11.13;;;2.50;;
9102;SDS011;4587;51.434;6.788;2022-10-26T00:09:38;7.40;;;2.37;;
9102;SDS011;4587;51.434;6.788;2022-10-26T00:12:03;9.00;;;2.50;;
9102;SDS011;4587;51.434;6.788;2022-10-26T00:14:29;5.50;;;1.93;;
9102;SDS011;4587;51.434;6.788;2022-10-26T00:16:55;6.50;;;2.10;;
9102;SDS011;4587;51.434;6.788;2022-10-26T00:19:20;5.87;;;1.83;;
9102;SDS011;4587;51.434;6.788;2022-10-26T00:21:46;5.60;;;2.00;;
9102;SDS011;4587;51.434;6.788;2022-10-26T00:24:12;3.50;;;1.60;;
9102;SDS011;4587;51.434;6.788;2022-10-26T00:26:38;6.53;;;2.23;;
9102;SDS011;4587;51.434;6.788;2022-10-26T00:29:04;4.07;;;1.73;;
9102;SDS011;4587;51.434;6.788;2022-10-26T00:31:30;3.07;;;1.67;;
9102;SDS011;4587;51.434;6.788;2022-10-26T00:33:56;6.07;;;2.30;;
9102;SDS011;4587;51.434;6.788;2022-10-26T00:36:22;8.23;;;2.10;;
9102;SDS011;4587;51.434;6.788;2022-10-26T00:38:50;6.53;;;1.80;;
9102;SDS011;4587;51.434;6.788;2022-10-26T00:41:17;3.37;;;1.60;;
9102;SDS011;4587;51.434;6.788;2022-10-26T00:43:45;6.70;;;1.97;;
9102;SDS011;4587;51.434;6.788;2022-10-26T00:46:12;4.97;;;1.63;;
9102;SDS011;4587;51.434;6.788;2022-10-26T00:48:43;4.40;;;1.77;;
9102;SDS011;4587;51.434;6.788;2022-10-26T00:51:19;6.77;;;1.67;;
9102;SDS011;4587;51.434;6.788;2022-10-26T00:53:59;5.73;;;1.70;;
9102;SDS011;4587;51.434;6.788;2022-10-26T00:56:28;10.40;;;2.10;;
9102;SDS011;4587;51.434;6.788;2022-10-26T00:58:56;5.73;;;1.80;;
9102;SDS011;4587;51.434;6.788;2022-10-26T01:01:27;7.13;;;1.97;;
9102;SDS011;4587;51.434;6.788;2022-10-26T01:03:55;6.50;;;1.80;;
9102;SDS011;4587;51.434;6.788;2022-10-26T01:06:21;7.17;;;2.00;;
9102;SDS011;4587;51.434;6.788;2022-10-26T01:08:47;6.67;;;1.80;;
9102;SDS011;4587;51.434;6.788;2022-10-26T01:11:13;4.43;;;1.53;;
9102;SDS011;4587;51.434;6.788;2022-10-26T01:13:39;4.03;;;1.77;;
9102;SDS011;4587;51.434;6.788;2022-10-26T01:21:33;5.37;;;1.53;;
9102;SDS011;4587;51.434;6.788;2022-10-26T01:24:14;4.37;;;1.80;;
9102;SDS011;4587;51.434;6.788;2022-10-26T01:32:03;6.27;;;1.63;;
9102;SDS011;4587;51.434;6.788;2022-10-26T01:34:43;6.57;;;1.80;;
9102;SDS011;4587;51.434;6.788;2022-10-26T01:37:29;5.47;;;1.50;;
9102;SDS011;4587;51.434;6.788;2022-10-26T01:40:00;6.03;;;1.63;;
9102;SDS011;4587;51.434;6.788;2022-10-26T01:42:33;9.60;;;1.43;;
9102;SDS011;4587;51.434;6.788;2022-10-26T01:45:01;4.17;;;1.50;;
9102;SDS011;4587;51.434;6.788;2022-10-26T01:47:31;4.57;;;1.60;;
9102;SDS011;4587;51.434;6.788;2022-10-26T01:50:01;2.93;;;1.40;;
9102;SDS011;4587;51.434;6.788;2022-10-26T01:52:28;2.80;;;1.13;;
9102;SDS011;4587;51.434;6.788;2022-10-26T01:55:00;5.43;;;1.50;;
9102;SDS011;4587;51.434;6.788;2022-10-26T01:57:33;6.37;;;1.60;;
9102;SDS011;4587;51.434;6.788;2022-10-26T02:00:03;5.17;;;1.57;;
9102;SDS011;4587;51.434;6.788;2022-10-26T02:11:29;6.07;;;1.30;;
9102;SDS011;4587;51.434;6.788;2022-10-26T02:21:57;4.23;;;1.20;;
9102;SDS011;4587;51.434;6.788;2022-10-26T02:24:49;5.30;;;1.40;;
9102;SDS011;4587;51.434;6.788;2022-10-26T02:27:24;4.70;;;1.57;;
9102;SDS011;4587;51.434;6.788;2022-10-26T02:29:53;6.33;;;1.57;;
9102;SDS011;4587;51.434;6.788;2022-10-26T02:32:24;5.93;;;1.80;;
9102;SDS011;4587;51.434;6.788;2022-10-26T02:34:55;3.87;;;1.47;;
9102;SDS011;4587;51.434;6.788;2022-10-26T02:37:23;3.37;;;1.40;;
9102;SDS011;4587;51.434;6.788;2022-10-26T02:39:51;10.07;;;2.03;;
9102;SDS011;4587;51.434;6.788;2022-10-26T02:42:19;7.83;;;1.80;;
9102;SDS011;4587;51.434;6.788;2022-10-26T02:44:49;5.10;;;2.10;;
9102;SDS011;4587;51.434;6.788;2022-10-26T02:47:18;8.17;;;1.80;;
9102;SDS011;4587;51.434;6.788;2022-10-26T02:49:45;4.73;;;1.83;;
9102;SDS011;4587;51.434;6.788;2022-10-26T02:52:16;5.80;;;2.10;;
9102;SDS011;4587;51.434;6.788;2022-10-26T02:54:59;6.63;;;2.33;;
9102;SDS011;4587;51.434;6.788;2022-10-26T02:57:38;7.70;;;2.10;;
9102;SDS011;4587;51.434;6.788;2022-10-26T03:00:09;6.87;;;1.80;;
9102;SDS011;4587;51.434;6.788;2022-10-26T03:02:36;4.73;;;1.83;;
9102;SDS011;4587;51.434;6.788;2022-10-26T03:05:06;6.60;;;1.97;;
9102;SDS011;4587;51.434;6.788;2022-10-26T03:07:43;7.07;;;2.10;;
9102;SDS011;4587;51.434;6.788;2022-10-26T03:10:09;10.43;;;2.23;;
9102;SDS011;4587;51.434;6.788;2022-10-26T03:12:34;6.53;;;1.87;;
9102;SDS011;4587;51.434;6.788;2022-10-26T03:15:00;12.23;;;2.10;;
9102;SDS011;4587;51.434;6.788;2022-10-26T03:17:26;11.03;;;1.87;;
9102;SDS011;4587;51.434;6.788;2022-10-26T03:19:51;5.47;;;1.80;;
9102;SDS011;4587;51.434;6.788;2022-10-26T03:22:17;5.10;;;1.80;;
9102;SDS011;4587;51.434;6.788;2022-10-26T03:24:43;4.73;;;1.97;;
9102;SDS011;4587;51.434;6.788;2022-10-26T03:27:08;7.93;;;2.10;;
9102;SDS011;4587;51.434;6.788;2022-10-26T03:29:34;6.13;;;2.20;;
9102;SDS011;4587;51.434;6.788;2022-10-26T03:31:59;6.23;;;2.00;;
9102;SDS011;4587;51.434;6.788;2022-10-26T03:34:25;6.10;;;1.80;;
9102;SDS011;4587;51.434;6.788;2022-10-26T03:36:50;4.50;;;1.83;;
9102;SDS011;4587;51.434;6.788;2022-10-26T03:39:16;8.63;;;2.03;;
9102;SDS011;4587;51.434;6.788;2022-10-26T03:41:41;7.87;;;2.00;;
9102;SDS011;4587;51.434;6.788;2022-10-26T03:44:08;5.73;;;2.30;;
9102;SDS011;4587;51.434;6.788;2022-10-26T03:46:33;5.67;;;2.53;;
9102;SDS011;4587;51.434;6.788;2022-10-26T03:48:59;4.07;;;2.10;;
9102;SDS011;4587;51.434;6.788;2022-10-26T03:51:24;7.93;;;2.07;;
9102;SDS011;4587;51.434;6.788;2022-10-26T03:53:50;6.63;;;2.10;;
9102;SDS011;4587;51.434;6.788;2022-10-26T03:56:15;6.97;;;2.17;;
9102;SDS011;4587;51.434;6.788;2022-10-26T03:58:41;4.80;;;1.83;;
9102;SDS011;4587;51.434;6.788;2022-10-26T04:01:06;7.00;;;1.80;;
9102;SDS011;4587;51.434;6.788;2022-10-26T04:03:32;4.50;;;1.90;;
9102;SDS011;4587;51.434;6.788;2022-10-26T04:06:01;6.40;;;1.90;;
9102;SDS011;4587;51.434;6.788;2022-10-26T04:08:27;4.43;;;1.70;;
9102;SDS011;4587;51.434;6.788;2022-10-26T04:10:53;7.00;;;1.70;;
9102;SDS011;4587;51.434;6.788;2022-10-26T04:13:18;5.07;;;1.70;;
9102;SDS011;4587;51.434;6.788;2022-10-26T04:15:44;4.20;;;1.40;;
9102;SDS011;4587;51.434;6.788;2022-10-26T04:18:10;4.10;;;1.50;;
9102;SDS011;4587;51.434;6.788;2022-10-26T04:20:38;6.17;;;1.30;;
9102;SDS011;4587;51.434;6.788;2022-10-26T04:23:12;6.20;;;1.73;;
9102;SDS011;4587;51.434;6.788;2022-10-26T04:25:39;5.60;;;1.57;;
9102;SDS011;4587;51.434;6.788;2022-10-26T04:28:04;4.23;;;1.40;;
9102;SDS011;4587;51.434;6.788;2022-10-26T04:30:32;6.90;;;1.63;;
9102;SDS011;4587;51.434;6.788;2022-10-26T04:32:58;4.37;;;1.30;;
9102;SDS011;4587;51.434;6.788;2022-10-26T04:35:24;4.63;;;1.50;;
9102;SDS011;4587;51.434;6.788;2022-10-26T04:37:50;4.47;;;1.40;;
9102;SDS011;4587;51.434;6.788;2022-10-26T04:40:20;5.33;;;1.40;;
9102;SDS011;4587;51.434;6.788;2022-10-26T04:42:46;5.80;;;1.40;;
9102;SDS011;4587;51.434;6.788;2022-10-26T04:45:12;4.13;;;1.43;;
9102;SDS011;4587;51.434;6.788;2022-10-26T04:47:40;4.83;;;1.50;;
9102;SDS011;4587;51.434;6.788;2022-10-26T04:50:06;3.93;;;1.27;;
9102;SDS011;4587;51.434;6.788;2022-10-26T04:52:33;5.60;;;1.60;;
9102;SDS011;4587;51.434;6.788;2022-10-26T04:54:59;3.77;;;1.50;;
9102;SDS011;4587;51.434;6.788;2022-10-26T04:57:25;3.70;;;1.37;;
9102;SDS011;4587;51.434;6.788;2022-10-26T04:59:51;3.97;;;1.30;;
9102;SDS011;4587;51.434;6.788;2022-10-26T05:02:16;6.37;;;1.70;;
9102;SDS011;4587;51.434;6.788;2022-10-26T05:04:42;3.07;;;1.40;;
9102;SDS011;4587;51.434;6.788;2022-10-26T05:07:07;4.67;;;1.23;;
9102;SDS011;4587;51.434;6.788;2022-10-26T05:09:33;7.10;;;1.43;;
9102;SDS011;4587;51.434;6.788;2022-10-26T05:11:58;4.17;;;1.30;;
9102;SDS011;4587;51.434;6.788;2022-10-26T05:14:24;8.30;;;1.67;;
9102;SDS011;4587;51.434;6.788;2022-10-26T05:16:50;3.97;;;1.27;;
9102;SDS011;4587;51.434;6.788;2022-10-26T05:19:15;4.17;;;1.50;;
9102;SDS011;4587;51.434;6.788;2022-10-26T05:21:41;4.47;;;1.23;;
9102;SDS011;4587;51.434;6.788;2022-10-26T05:24:07;7.07;;;1.40;;
9102;SDS011;4587;51.434;6.788;2022-10-26T05:26:32;3.37;;;1.47;;
9102;SDS011;4587;51.434;6.788;2022-10-26T05:28:58;3.13;;;1.20;;
9102;SDS011;4587;51.434;6.788;2022-10-26T05:31:24;6.50;;;1.40;;
9102;SDS011;4587;51.434;6.788;2022-10-26T05:33:50;4.10;;;1.50;;
9102;SDS011;4587;51.434;6.788;2022-10-26T05:36:21;4.03;;;1.30;;
9102;SDS011;4587;51.434;6.788;2022-10-26T05:38:47;4.83;;;1.30;;
9102;SDS011;4587;51.434;6.788;2022-10-26T05:41:12;4.73;;;1.40;;
9102;SDS011;4587;51.434;6.788;2022-10-26T05:43:38;2.87;;;1.40;;
9102;SDS011;4587;51.434;6.788;2022-10-26T05:46:03;7.07;;;1.40;;
9102;SDS011;4587;51.434;6.788;2022-10-26T05:48:29;2.40;;;1.10;;
9102;SDS011;4587;51.434;6.788;2022-10-26T05:50:58;4.27;;;1.30;;
9102;SDS011;4587;51.434;6.788;2022-10-26T05:53:25;2.83;;;1.10;;
9102;SDS011;4587;51.434;6.788;2022-10-26T05:55:51;8.57;;;1.73;;
9102;SDS011;4587;51.434;6.788;2022-10-26T05:58:17;4.40;;;1.33;;
9102;SDS011;4587;51.434;6.788;2022-10-26T06:06:39;5.73;;;1.20;;
9102;SDS011;4587;51.434;6.788;2022-10-26T06:09:09;3.47;;;1.13;;
9102;SDS011;4587;51.434;6.788;2022-10-26T06:11:35;4.20;;;1.33;;
9102;SDS011;4587;51.434;6.788;2022-10-26T06:14:02;3.10;;;1.40;;
9102;SDS011;4587;51.434;6.788;2022-10-26T06:16:31;3.17;;;1.27;;
9102;SDS011;4587;51.434;6.788;2022-10-26T06:19:28;6.57;;;1.40;;
9102;SDS011;4587;51.434;6.788;2022-10-26T06:27:48;2.57;;;1.10;;
9102;SDS011;4587;51.434;6.788;2022-10-26T06:30:16;3.97;;;1.50;;
9102;SDS011;4587;51.434;6.788;2022-10-26T06:32:44;7.37;;;1.50;;
9102;SDS011;4587;51.434;6.788;2022-10-26T06:37:38;7.93;;;1.60;;
9102;SDS011;4587;51.434;6.788;2022-10-26T06:40:10;7.90;;;1.40;;
9102;SDS011;4587;51.434;6.788;2022-10-26T06:42:41;7.10;;;1.43;;
9102;SDS011;4587;51.434;6.788;2022-10-26T06:45:10;3.67;;;1.40;;
9102;SDS011;4587;51.434;6.788;2022-10-26T06:47:45;3.43;;;1.37;;
9102;SDS011;4587;51.434;6.788;2022-10-26T06:59:37;10.50;;;4.33;;
9102;SDS011;4587;51.434;6.788;2022-10-26T07:02:08;6.23;;;1.63;;
9102;SDS011;4587;51.434;6.788;2022-10-26T07:04:35;3.30;;;1.40;;
9102;SDS011;4587;51.434;6.788;2022-10-26T07:07:01;6.33;;;1.60;;
9102;SDS011;4587;51.434;6.788;2022-10-26T07:09:27;4.20;;;1.30;;
9102;SDS011;4587;51.434;6.788;2022-10-26T07:11:52;4.33;;;1.10;;
9102;SDS011;4587;51.434;6.788;2022-10-26T07:14:18;2.27;;;1.03;;
9102;SDS011;4587;51.434;6.788;2022-10-26T07:16:43;3.40;;;1.10;;
9102;SDS011;4587;51.434;6.788;2022-10-26T07:19:18;4.97;;;1.13;;
9102;SDS011;4587;51.434;6.788;2022-10-26T07:21:44;3.13;;;1.10;;
9102;SDS011;4587;51.434;6.788;2022-10-26T07:24:10;3.03;;;1.07;;
9102;SDS011;4587;51.434;6.788;2022-10-26T07:26:35;2.30;;;0.97;;
9102;SDS011;4587;51.434;6.788;2022-10-26T07:29:01;3.70;;;1.10;;
9102;SDS011;4587;51.434;6.788;2022-10-26T07:31:26;3.57;;;1.00;;
9102;SDS011;4587;51.434;6.788;2022-10-26T07:33:52;4.20;;;1.00;;
9102;SDS011;4587;51.434;6.788;2022-10-26T07:36:18;3.70;;;1.20;;
9102;SDS011;4587;51.434;6.788;2022-10-26T07:38:44;4.20;;;1.27;;
9102;SDS011;4587;51.434;6.788;2022-10-26T07:41:09;1.93;;;0.80;;
9102;SDS011;4587;51.434;6.788;2022-10-26T07:43:35;7.73;;;1.40;;
9102;SDS011;4587;51.434;6.788;2022-10-26T07:46:01;5.80;;;1.20;;
9102;SDS011;4587;51.434;6.788;2022-10-26T07:48:26;3.40;;;1.30;;
9102;SDS011;4587;51.434;6.788;2022-10-26T07:50:52;2.87;;;1.13;;
9102;SDS011;4587;51.434;6.788;2022-10-26T07:53:17;3.23;;;1.33;;
9102;SDS011;4587;51.434;6.788;2022-10-26T07:55:50;2.53;;;1.30;;
9102;SDS011;4587;51.434;6.788;2022-10-26T07:58:17;2.97;;;1.20;;
9102;SDS011;4587;51.434;6.788;2022-10-26T08:00:47;9.10;;;1.30;;
9102;SDS011;4587;51.434;6.788;2022-10-26T08:03:13;5.63;;;1.43;;
9102;SDS011;4587;51.434;6.788;2022-10-26T08:05:39;3.27;;;1.40;;
9102;SDS011;4587;51.434;6.788;2022-10-26T08:08:04;3.40;;;1.33;;
9102;SDS011;4587;51.434;6.788;2022-10-26T08:10:30;2.90;;;1.20;;
9102;SDS011;4587;51.434;6.788;2022-10-26T08:12:55;4.27;;;1.27;;
9102;SDS011;4587;51.434;6.788;2022-10-26T08:15:21;3.57;;;1.30;;
9102;SDS011;4587;51.434;6.788;2022-10-26T08:17:46;4.33;;;1.50;;
9102;SDS011;4587;51.434;6.788;2022-10-26T08:20:12;3.57;;;1.50;;
9102;SDS011;4587;51.434;6.788;2022-10-26T08:22:37;6.40;;;1.33;;
9102;SDS011;4587;51.434;6.788;2022-10-26T08:25:03;2.60;;;1.20;;
9102;SDS011;4587;51.434;6.788;2022-10-26T08:27:29;3.40;;;1.07;;
9102;SDS011;4587;51.434;6.788;2022-10-26T08:29:54;2.47;;;1.30;;
9102;SDS011;4587;51.434;6.788;2022-10-26T08:32:20;4.30;;;1.30;;
9102;SDS011;4587;51.434;6.788;2022-10-26T08:34:45;6.83;;;1.67;;
9102;SDS011;4587;51.434;6.788;2022-10-26T08:37:11;3.07;;;1.30;;
9102;SDS011;4587;51.434;6.788;2022-10-26T08:39:36;3.07;;;1.50;;
9102;SDS011;4587;51.434;6.788;2022-10-26T08:42:18;3.23;;;1.50;;
9102;SDS011;4587;51.434;6.788;2022-10-26T08:44:50;2.03;;;1.30;;
9102;SDS011;4587;51.434;6.788;2022-10-26T08:47:24;4.57;;;1.23;;
9102;SDS011;4587;51.434;6.788;2022-10-26T08:52:45;3.83;;;1.47;;
9102;SDS011;4587;51.434;6.788;2022-10-26T08:55:18;4.13;;;1.40;;
9102;SDS011;4587;51.434;6.788;2022-10-26T08:57:47;4.57;;;1.30;;
9102;SDS011;4587;51.434;6.788;2022-10-26T09:00:14;4.77;;;1.50;;
9102;SDS011;4587;51.434;6.788;2022-10-26T09:02:49;2.33;;;1.00;;
9102;SDS011;4587;51.434;6.788;2022-10-26T09:05:17;1.80;;;1.20;;
9102;SDS011;4587;51.434;6.788;2022-10-26T09:18:52;4.37;;;1.63;;
9102;SDS011;4587;51.434;6.788;2022-10-26T09:21:27;5.37;;;1.60;;
9102;SDS011;4587;51.434;6.788;2022-10-26T09:24:19;5.40;;;1.67;;
9102;SDS011;4587;51.434;6.788;2022-10-26T09:26:56;4.23;;;1.80;;
9102;SDS011;4587;51.434;6.788;2022-10-26T09:29:39;3.53;;;1.60;;
9102;SDS011;4587;51.434;6.788;2022-10-26T09:32:12;3.43;;;1.90;;
9102;SDS011;4587;51.434;6.788;2022-10-26T09:34:48;4.83;;;1.73;;
9102;SDS011;4587;51.434;6.788;2022-10-26T09:37:21;4.07;;;1.80;;
9102;SDS011;4587;51.434;6.788;2022-10-26T09:39:55;5.37;;;1.70;;
9102;SDS011;4587;51.434;6.788;2022-10-26T09:42:32;5.07;;;1.60;;
9102;SDS011;4587;51.434;6.788;2022-10-26T09:45:05;5.13;;;1.90;;
9102;SDS011;4587;51.434;6.788;2022-10-26T09:47:50;4.80;;;1.80;;
9102;SDS011;4587;51.434;6.788;2022-10-26T09:52:54;5.50;;;1.77;;
9102;SDS011;4587;51.434;6.788;2022-10-26T09:55:19;5.00;;;1.80;;
9102;SDS011;4587;51.434;6.788;2022-10-26T09:57:47;3.87;;;1.43;;
9102;SDS011;4587;51.434;6.788;2022-10-26T10:00:16;5.97;;;1.70;;
9102;SDS011;4587;51.434;6.788;2022-10-26T10:02:44;6.13;;;2.10;;
9102;SDS011;4587;51.434;6.788;2022-10-26T10:07:49;5.93;;;1.87;;
9102;SDS011;4587;51.434;6.788;2022-10-26T10:10:16;6.30;;;2.03;;
9102;SDS011;4587;51.434;6.788;2022-10-26T10:12:44;4.37;;;1.80;;
9102;SDS011;4587;51.434;6.788;2022-10-26T10:15:29;7.27;;;2.50;;
9102;SDS011;4587;51.434;6.788;2022-10-26T10:17:54;7.03;;;1.90;;
9102;SDS011;4587;51.434;6.788;2022-10-26T10:20:21;7.70;;;2.10;;
9102;SDS011;4587;51.434;6.788;2022-10-26T10:22:57;6.50;;;1.87;;
9102;SDS011;4587;51.434;6.788;2022-10-26T10:25:34;6.37;;;1.77;;
9102;SDS011;4587;51.434;6.788;2022-10-26T10:28:02;5.60;;;2.00;;
9102;SDS011;4587;51.434;6.788;2022-10-26T10:30:53;6.97;;;2.10;;
9102;SDS011;4587;51.434;6.788;2022-10-26T10:33:23;3.97;;;2.20;;
9102;SDS011;4587;51.434;6.788;2022-10-26T10:36:04;5.67;;;2.20;;
9102;SDS011;4587;51.434;6.788;2022-10-26T10:38:39;7.50;;;2.00;;
9102;SDS011;4587;51.434;6.788;2022-10-26T10:41:13;4.30;;;2.10;;
9102;SDS011;4587;51.434;6.788;2022-10-26T10:43:44;6.27;;;2.40;;
9102;SDS011;4587;51.434;6.788;2022-10-26T10:46:19;6.10;;;2.43;;
9102;SDS011;4587;51.434;6.788;2022-10-26T10:48:48;5.73;;;2.10;;
9102;SDS011;4587;51.434;6.788;2022-10-26T10:51:18;6.43;;;2.30;;
9102;SDS011;4587;51.434;6.788;2022-10-26T10:53:47;5.23;;;2.10;;
9102;SDS011;4587;51.434;6.788;2022-10-26T11:07:47;5.37;;;2.17;;
9102;SDS011;4587;51.434;6.788;2022-10-26T11:10:18;5.27;;;2.10;;
9102;SDS011;4587;51.434;6.788;2022-10-26T11:12:48;4.70;;;2.20;;
9102;SDS011;4587;51.434;6.788;2022-10-26T11:15:20;4.17;;;2.30;;
9102;SDS011;4587;51.434;6.788;2022-10-26T11:20:44;6.27;;;2.40;;
9102;SDS011;4587;51.434;6.788;2022-10-26T11:23:30;5.47;;;2.30;;
9102;SDS011;4587;51.434;6.788;2022-10-26T11:26:10;4.33;;;2.37;;
9102;SDS011;4587;51.434;6.788;2022-10-26T11:29:05;4.03;;;2.13;;
9102;SDS011;4587;51.434;6.788;2022-10-26T11:32:00;8.20;;;2.20;;
9102;SDS011;4587;51.434;6.788;2022-10-26T11:34:47;5.53;;;2.23;;
9102;SDS011;4587;51.434;6.788;2022-10-26T11:37:26;8.00;;;2.60;;
9102;SDS011;4587;51.434;6.788;2022-10-26T11:43:02;6.27;;;2.70;;
9102;SDS011;4587;51.434;6.788;2022-10-26T11:45:31;6.40;;;2.60;;
9102;SDS011;4587;51.434;6.788;2022-10-26T11:50:33;6.70;;;2.63;;
9102;SDS011;4587;51.434;6.788;2022-10-26T11:53:07;5.80;;;2.37;;
9102;SDS011;4587;51.434;6.788;2022-10-26T11:55:40;6.80;;;2.07;;
9102;SDS011;4587;51.434;6.788;2022-10-26T11:58:07;5.07;;;1.90;;
9102;SDS011;4587;51.434;6.788;2022-10-26T12:00:39;4.83;;;1.70;;
9102;SDS011;4587;51.434;6.788;2022-10-26T12:03:12;4.50;;;1.50;;
9102;SDS011;4587;51.434;6.788;2022-10-26T12:05:43;3.20;;;1.40;;
9102;SDS011;4587;51.434;6.788;2022-10-26T12:08:17;7.57;;;1.73;;
9102;SDS011;4587;51.434;6.788;2022-10-26T12:14:01;5.07;;;1.77;;
9102;SDS011;4587;51.434;6.788;2022-10-26T12:19:27;3.50;;;1.60;;
9102;SDS011;4587;51.434;6.788;2022-10-26T12:22:00;3.87;;;1.63;;
9102;SDS011;4587;51.434;6.788;2022-10-26T12:24:30;3.53;;;1.63;;
9102;SDS011;4587;51.434;6.788;2022-10-26T12:27:03;3.53;;;1.77;;
9102;SDS011;4587;51.434;6.788;2022-10-26T12:29:34;6.10;;;1.20;;
9102;SDS011;4587;51.434;6.788;2022-10-26T12:32:02;4.47;;;1.50;;
9102;SDS011;4587;51.434;6.788;2022-10-26T12:37:28;3.37;;;1.27;;
9102;SDS011;4587;51.434;6.788;2022-10-26T12:41:06;4.60;;;1.60;;
9102;SDS011;4587;51.434;6.788;2022-10-26T12:45:40;3.07;;;1.20;;
9102;SDS011;4587;51.434;6.788;2022-10-26T12:48:22;5.00;;;1.50;;
9102;SDS011;4587;51.434;6.788;2022-10-26T12:50:49;5.43;;;1.17;;
9102;SDS011;4587;51.434;6.788;2022-10-26T12:53:16;4.03;;;1.20;;
9102;SDS011;4587;51.434;6.788;2022-10-26T12:58:23;4.03;;;1.43;;
9102;SDS011;4587;51.434;6.788;2022-10-26T13:03:29;4.20;;;1.30;;
9102;SDS011;4587;51.434;6.788;2022-10-26T13:08:52;4.53;;;1.47;;
9102;SDS011;4587;51.434;6.788;2022-10-26T13:11:41;3.53;;;1.40;;
9102;SDS011;4587;51.434;6.788;2022-10-26T13:14:20;3.87;;;1.40;;
9102;SDS011;4587;51.434;6.788;2022-10-26T13:16:59;10.47;;;1.53;;
9102;SDS011;4587;51.434;6.788;2022-10-26T13:19:40;2.93;;;1.07;;
9102;SDS011;4587;51.434;6.788;2022-10-26T13:22:14;3.83;;;1.50;;
9102;SDS011;4587;51.434;6.788;2022-10-26T13:24:50;3.40;;;1.40;;
9102;SDS011;4587;51.434;6.788;2022-10-26T13:30:33;3.73;;;1.40;;
9102;SDS011;4587;51.434;6.788;2022-10-26T13:32:54;4.50;;;1.40;;
9102;SDS011;4587;51.434;6.788;2022-10-26T13:35:21;5.03;;;1.60;;
9102;SDS011;4587;51.434;6.788;2022-10-26T13:37:49;3.10;;;1.27;;
9102;SDS011;4587;51.434;6.788;2022-10-26T13:40:21;2.13;;;1.37;;
9102;SDS011;4587;51.434;6.788;2022-10-26T13:42:51;4.87;;;1.50;;
9102;SDS011;4587;51.434;6.788;2022-10-26T13:45:24;5.17;;;1.60;;
9102;SDS011;4587;51.434;6.788;2022-10-26T13:47:56;5.70;;;1.67;;
9102;SDS011;4587;51.434;6.788;2022-10-26T13:50:28;5.87;;;1.50;;
9102;SDS011;4587;51.434;6.788;2022-10-26T13:53:00;5.70;;;1.60;;
9102;SDS011;4587;51.434;6.788;2022-10-26T13:55:46;3.20;;;1.10;;
9102;SDS011;4587;51.434;6.788;2022-10-26T13:58:17;5.03;;;1.40;;
9102;SDS011;4587;51.434;6.788;2022-10-26T14:03:38;3.67;;;1.40;;
9102;SDS011;4587;51.434;6.788;2022-10-26T14:06:15;3.40;;;1.53;;
9102;SDS011;4587;51.434;6.788;2022-10-26T14:08:53;2.67;;;1.53;;
9102;SDS011;4587;51.434;6.788;2022-10-26T14:11:22;3.77;;;1.50;;
9102;SDS011;4587;51.434;6.788;2022-10-26T14:13:53;4.10;;;1.60;;
9102;SDS011;4587;51.434;6.788;2022-10-26T14:16:19;5.77;;;1.40;;
9102;SDS011;4587;51.434;6.788;2022-10-26T14:18:51;4.37;;;1.60;;
9102;SDS011;4587;51.434;6.788;2022-10-26T14:21:18;5.60;;;1.70;;
9102;SDS011;4587;51.434;6.788;2022-10-26T14:26:30;2.50;;;1.37;;
9102;SDS011;4587;51.434;6.788;2022-10-26T14:29:03;3.13;;;1.50;;
9102;SDS011;4587;51.434;6.788;2022-10-26T14:31:38;3.97;;;1.40;;
9102;SDS011;4587;51.434;6.788;2022-10-26T14:34:03;4.60;;;1.50;;
9102;SDS011;4587;51.434;6.788;2022-10-26T14:36:32;5.23;;;1.60;;
9102;SDS011;4587;51.434;6.788;2022-10-26T14:39:05;2.80;;;1.37;;
9102;SDS011;4587;51.434;6.788;2022-10-26T14:41:36;3.93;;;1.30;;
9102;SDS011;4587;51.434;6.788;2022-10-26T14:44:02;4.03;;;1.33;;
9102;SDS011;4587;51.434;6.788;2022-10-26T14:46:30;3.77;;;1.20;;
9102;SDS011;4587;51.434;6.788;2022-10-26T14:48:59;2.97;;;1.00;;
9102;SDS011;4587;51.434;6.788;2022-10-26T14:51:27;4.93;;;1.33;;
9102;SDS011;4587;51.434;6.788;2022-10-26T14:53:55;4.63;;;1.53;;
9102;SDS011;4587;51.434;6.788;2022-10-26T14:56:24;3.30;;;1.33;;
9102;SDS011;4587;51.434;6.788;2022-10-26T14:58:58;4.03;;;1.80;;
9102;SDS011;4587;51.434;6.788;2022-10-26T15:01:51;4.23;;;2.20;;
9102;SDS011;4587;51.434;6.788;2022-10-26T15:04:26;6.10;;;2.13;;
9102;SDS011;4587;51.434;6.788;2022-10-26T15:10:05;4.87;;;1.97;;
9102;SDS011;4587;51.434;6.788;2022-10-26T15:12:50;4.97;;;2.50;;
9102;SDS011;4587;51.434;6.788;2022-10-26T15:15:18;5.37;;;2.10;;
9102;SDS011;4587;51.434;6.788;2022-10-26T15:17:55;5.70;;;2.60;;
9102;SDS011;4587;51.434;6.788;2022-10-26T15:20:23;4.30;;;2.33;;
9102;SDS011;4587;51.434;6.788;2022-10-26T15:22:52;4.33;;;2.23;;
9102;SDS011;4587;51.434;6.788;2022-10-26T15:25:23;8.20;;;2.93;;
9102;SDS011;4587;51.434;6.788;2022-10-26T15:27:53;8.07;;;2.70;;
9102;SDS011;4587;51.434;6.788;2022-10-26T15:30:20;7.20;;;2.47;;
9102;SDS011;4587;51.434;6.788;2022-10-26T15:32:47;3.67;;;1.87;;
9102;SDS011;4587;51.434;6.788;2022-10-26T15:35:14;9.10;;;1.77;;
9102;SDS011;4587;51.434;6.788;2022-10-26T15:37:43;4.37;;;1.80;;
9102;SDS011;4587;51.434;6.788;2022-10-26T15:40:09;7.33;;;1.47;;
9102;SDS011;4587;51.434;6.788;2022-10-26T15:42:36;5.70;;;1.60;;
9102;SDS011;4587;51.434;6.788;2022-10-26T15:45:04;3.30;;;1.43;;
9102;SDS011;4587;51.434;6.788;2022-10-26T15:47:41;5.50;;;1.33;;
9102;SDS011;4587;51.434;6.788;2022-10-26T15:50:13;2.50;;;1.23;;
9102;SDS011;4587;51.434;6.788;2022-10-26T15:52:41;4.37;;;1.47;;
9102;SDS011;4587;51.434;6.788;2022-10-26T15:55:07;5.07;;;1.60;;
9102;SDS011;4587;51.434;6.788;2022-10-26T15:57:34;2.03;;;1.30;;
9102;SDS011;4587;51.434;6.788;2022-10-26T15:59:59;4.20;;;1.80;;
9102;SDS011;4587;51.434;6.788;2022-10-26T16:02:25;2.60;;;1.30;;
9102;SDS011;4587;51.434;6.788;2022-10-26T16:04:51;5.43;;;1.43;;
9102;SDS011;4587;51.434;6.788;2022-10-26T16:07:24;5.53;;;1.60;;
9102;SDS011;4587;51.434;6.788;2022-10-26T16:09:51;4.00;;;1.40;;
9102;SDS011;4587;51.434;6.788;2022-10-26T16:12:17;4.53;;;1.67;;
9102;SDS011;4587;51.434;6.788;2022-10-26T16:14:43;6.20;;;2.10;;
9102;SDS011;4587;51.434;6.788;2022-10-26T16:17:08;5.67;;;1.70;;
9102;SDS011;4587;51.434;6.788;2022-10-26T16:19:34;4.83;;;2.00;;
9102;SDS011;4587;51.434;6.788;2022-10-26T16:22:00;4.77;;;1.70;;
9102;SDS011;4587;51.434;6.788;2022-10-26T16:24:26;5.33;;;1.60;;
9102;SDS011;4587;51.434;6.788;2022-10-26T16:26:52;6.27;;;1.87;;
9102;SDS011;4587;51.434;6.788;2022-10-26T16:29:18;4.37;;;1.87;;
9102;SDS011;4587;51.434;6.788;2022-10-26T16:31:44;8.33;;;2.40;;
9102;SDS011;4587;51.434;6.788;2022-10-26T16:34:10;5.20;;;2.20;;
9102;SDS011;4587;51.434;6.788;2022-10-26T16:36:36;14.63;;;4.80;;
9102;SDS011;4587;51.434;6.788;2022-10-26T16:39:02;5.30;;;2.50;;
9102;SDS011;4587;51.434;6.788;2022-10-26T16:41:31;9.37;;;2.70;;
9102;SDS011;4587;51.434;6.788;2022-10-26T16:43:58;7.47;;;3.10;;
9102;SDS011;4587;51.434;6.788;2022-10-26T16:46:24;7.97;;;2.83;;
9102;SDS011;4587;51.434;6.788;2022-10-26T16:48:50;5.63;;;2.53;;
9102;SDS011;4587;51.434;6.788;2022-10-26T16:51:20;6.37;;;2.50;;
9102;SDS011;4587;51.434;6.788;2022-10-26T16:53:47;7.53;;;2.60;;
9102;SDS011;4587;51.434;6.788;2022-10-26T16:56:18;7.83;;;2.97;;
9102;SDS011;4587;51.434;6.788;2022-10-26T16:58:45;6.60;;;2.47;;
9102;SDS011;4587;51.434;6.788;2022-10-26T17:01:11;4.53;;;2.13;;
9102;SDS011;4587;51.434;6.788;2022-10-26T17:03:42;5.37;;;2.30;;
9102;SDS011;4587;51.434;6.788;2022-10-26T17:06:08;3.73;;;2.00;;
9102;SDS011;4587;51.434;6.788;2022-10-26T17:08:34;2.63;;;2.00;;
9102;SDS011;4587;51.434;6.788;2022-10-26T17:11:01;4.07;;;1.97;;
9102;SDS011;4587;51.434;6.788;2022-10-26T17:13:33;4.57;;;2.00;;
9102;SDS011;4587;51.434;6.788;2022-10-26T17:16:15;5.37;;;2.20;;
9102;SDS011;4587;51.434;6.788;2022-10-26T17:18:43;6.70;;;2.13;;
9102;SDS011;4587;51.434;6.788;2022-10-26T17:21:10;5.27;;;2.30;;
9102;SDS011;4587;51.434;6.788;2022-10-26T17:23:36;6.10;;;2.10;;
9102;SDS011;4587;51.434;6.788;2022-10-26T17:26:02;4.43;;;2.20;;
9102;SDS011;4587;51.434;6.788;2022-10-26T17:28:29;4.67;;;1.80;;
9102;SDS011;4587;51.434;6.788;2022-10-26T17:31:09;7.37;;;2.20;;
9102;SDS011;4587;51.434;6.788;2022-10-26T17:33:39;4.40;;;2.20;;